createdAt,value
2022-08-22T08:03:55.625Z,24.57
2022-08-22T08:04:30.313Z,24.52
2022-08-22T08:05:28.659Z,24.59
2022-08-22T08:06:28.695Z,24.90
2022-08-22T08:07:28.769Z,24.76
2022-08-22T08:08:28.796Z,25.16
2022-08-22T08:09:28.850Z,25.38
2022-08-22T08:10:28.906Z,25.57
2022-08-22T08:11:28.997Z,24.90
2022-08-22T08:12:29.022Z,24.50
2022-08-22T08:13:29.077Z,24.63
2022-08-22T08:14:29.126Z,24.87
2022-08-22T08:15:29.186Z,25.07
2022-08-22T08:16:29.279Z,25.22
2022-08-22T08:17:32.251Z,25.07
2022-08-22T08:18:29.360Z,25.24
2022-08-22T08:19:29.408Z,25.68
2022-08-22T08:20:29.465Z,25.61
2022-08-22T08:21:29.559Z,25.93
2022-08-22T08:22:29.578Z,25.91
2022-08-22T08:23:29.643Z,25.97
2022-08-22T08:24:40.203Z,26.31
2022-08-22T08:25:29.794Z,25.30
2022-08-22T08:26:29.856Z,24.90
2022-08-22T08:27:29.906Z,24.73
2022-08-22T08:28:29.972Z,24.35
2022-08-22T08:29:30.104Z,23.92
2022-08-22T08:30:30.088Z,24.27
2022-08-22T08:31:30.139Z,24.42
2022-08-22T08:32:30.267Z,24.73
2022-08-22T08:33:30.251Z,24.50
2022-08-22T08:34:30.327Z,24.60
2022-08-22T08:35:35.346Z,24.47
2022-08-22T08:36:31.350Z,24.47
2022-08-22T08:37:30.459Z,24.50
2022-08-22T08:38:30.546Z,25.05
2022-08-22T08:39:35.069Z,25.46
2022-08-22T08:40:30.726Z,25.86
2022-08-22T08:41:30.701Z,25.97
2022-08-22T08:42:30.883Z,26.06
2022-08-22T08:43:31.286Z,25.61
2022-08-22T08:44:31.792Z,24.60
2022-08-22T08:45:30.876Z,24.27
2022-08-22T08:46:30.940Z,24.64
2022-08-22T08:47:32.963Z,24.94
2022-08-22T08:48:31.048Z,25.15
2022-08-22T08:49:33.652Z,25.42
2022-08-22T08:50:31.164Z,24.87
2022-08-22T08:51:31.217Z,25.05
2022-08-22T08:52:31.277Z,25.54
2022-08-22T08:53:31.394Z,25.98
2022-08-22T08:54:31.387Z,26.32
2022-08-22T08:55:31.477Z,26.67
2022-08-22T08:56:31.502Z,26.28
2022-08-22T08:57:53.420Z,25.44
2022-08-22T08:58:31.833Z,24.63
2022-08-22T08:59:31.735Z,24.08
2022-08-22T09:00:31.738Z,24.42
2022-08-22T09:01:31.911Z,24.44
2022-08-22T09:02:34.967Z,24.02
2022-08-22T09:03:31.907Z,24.13
2022-08-22T09:04:32.315Z,24.05
2022-08-22T09:05:32.033Z,24.17
2022-08-22T09:06:32.119Z,24.27
2022-08-22T09:07:32.185Z,24.52
2022-08-22T09:08:32.194Z,25.19
2022-08-22T09:09:32.338Z,25.06
2022-08-22T09:10:32.365Z,24.85
2022-08-22T09:11:32.464Z,24.68
2022-08-22T09:12:32.955Z,24.63
2022-08-22T09:13:34.528Z,24.57
2022-08-22T09:14:32.593Z,24.63
2022-08-22T09:16:32.744Z,24.17
2022-08-22T09:17:32.748Z,24.34
2022-08-22T09:18:32.802Z,24.39
2022-08-22T09:19:32.935Z,24.92
2022-08-22T09:20:32.951Z,25.43
2022-08-22T09:21:32.987Z,25.24
2022-08-22T09:22:33.442Z,25.56
2022-08-22T09:23:33.095Z,25.57
2022-08-22T09:24:33.217Z,25.74
2022-08-22T09:25:38.386Z,26.24
2022-08-22T09:26:33.285Z,26.59
2022-08-22T09:27:33.321Z,26.24
2022-08-22T09:28:33.356Z,26.52
2022-08-22T09:29:33.416Z,26.73
2022-08-22T09:30:33.551Z,26.77
2022-08-22T09:31:48.239Z,26.77
2022-08-22T09:32:33.618Z,26.87
2022-08-22T09:33:33.683Z,27.21
2022-08-22T09:34:33.750Z,27.64
2022-08-22T09:35:33.859Z,28.03
2022-08-22T09:36:33.914Z,28.32
2022-08-22T09:37:33.909Z,28.21
2022-08-22T09:38:34.010Z,27.19
2022-08-22T09:39:34.007Z,26.68
2022-08-22T09:40:34.060Z,26.80
2022-08-22T09:41:34.148Z,27.17
2022-08-22T09:42:34.210Z,27.62
2022-08-22T09:43:34.316Z,28.09
2022-08-22T09:44:34.301Z,28.44
2022-08-22T09:45:34.374Z,28.53
2022-08-22T09:46:36.850Z,28.43
2022-08-22T09:47:34.531Z,28.44
2022-08-22T09:48:34.536Z,28.59
2022-08-22T09:49:34.709Z,28.36
2022-08-22T09:50:34.641Z,27.54
2022-08-22T09:51:37.136Z,27.09
2022-08-22T09:52:36.824Z,27.05
2022-08-22T09:53:36.622Z,25.83
2022-08-22T09:54:34.949Z,24.83
2022-08-22T09:55:35.729Z,24.39
2022-08-22T09:56:38.034Z,24.75
2022-08-22T09:57:35.072Z,24.64
2022-08-22T09:58:40.265Z,25.24
2022-08-22T09:59:36.759Z,25.44
2022-08-22T10:00:35.193Z,25.15
2022-08-22T10:01:36.864Z,24.94
2022-08-22T10:02:35.924Z,25.05
2022-08-22T10:03:35.365Z,24.79
2022-08-22T10:04:35.459Z,24.76
2022-08-22T10:05:44.275Z,25.02
2022-08-22T10:06:35.549Z,25.07
2022-08-22T10:08:05.235Z,25.25
2022-08-22T10:08:35.689Z,25.61
2022-08-22T10:09:36.423Z,26.18
2022-08-22T10:10:35.768Z,25.56
2022-08-22T10:11:39.031Z,25.69
2022-08-22T10:12:36.466Z,25.75
2022-08-22T10:13:38.181Z,25.44
2022-08-22T10:14:38.041Z,25.54
2022-08-22T10:15:36.063Z,25.84
2022-08-22T10:16:36.974Z,26.55
2022-08-22T10:17:36.200Z,27.10
2022-08-22T10:18:36.267Z,27.58
2022-08-22T10:19:43.994Z,27.89
2022-08-22T10:20:36.897Z,27.39
2022-08-22T10:21:36.447Z,27.70
2022-08-22T10:22:36.531Z,27.77
2022-08-22T10:24:02.430Z,26.76
2022-08-22T10:24:51.236Z,26.25
2022-08-22T10:25:36.754Z,25.53
2022-08-22T10:26:41.414Z,25.34
2022-08-22T10:27:36.807Z,25.30
2022-08-22T10:28:36.899Z,24.87
2022-08-22T10:29:37.897Z,24.91
2022-08-22T10:30:37.070Z,24.85
2022-08-22T10:31:45.124Z,24.77
2022-08-22T10:32:39.898Z,24.88
2022-08-22T10:33:41.976Z,24.44
2022-08-22T10:34:59.436Z,24.77
2022-08-22T10:35:37.867Z,24.98
2022-08-22T10:36:39.867Z,24.82
2022-08-22T10:37:39.415Z,24.59
2022-08-22T10:38:52.425Z,24.49
2022-08-22T11:12:18.999Z,27.71
2022-08-22T11:13:19.012Z,27.77
2022-08-22T11:14:19.074Z,27.89
2022-08-22T11:15:24.180Z,28.07
2022-08-22T11:16:19.201Z,28.16
2022-08-22T11:17:31.067Z,28.44
2022-08-22T11:18:26.139Z,28.43
2022-08-22T11:19:20.136Z,28.03
2022-08-22T11:20:19.793Z,28.01
2022-08-22T11:21:19.492Z,28.09
2022-08-22T11:22:24.686Z,27.92
2022-08-22T11:23:19.581Z,27.84
2022-08-22T11:24:34.753Z,28.19
2022-08-22T11:25:28.665Z,28.69
2022-08-22T11:26:29.333Z,28.95
2022-08-22T11:27:20.988Z,29.13
2022-08-22T11:28:19.970Z,29.13
2022-08-22T11:29:19.938Z,29.13
2022-08-22T11:30:19.991Z,29.43
2022-08-22T11:31:20.110Z,29.55
2022-08-22T11:32:20.111Z,29.50
2022-08-22T11:33:20.176Z,29.87
2022-08-22T11:34:20.524Z,30.09
2022-08-22T11:35:20.313Z,30.33
2022-08-22T11:36:20.381Z,30.64
2022-08-22T11:37:20.424Z,30.59
2022-08-22T11:38:20.475Z,30.67
2022-08-22T11:39:20.545Z,30.71
2022-08-22T11:40:20.811Z,30.21
2022-08-22T11:41:20.735Z,30.30
2022-08-22T11:42:21.871Z,30.29
2022-08-22T11:43:20.801Z,30.12
2022-08-22T11:44:20.879Z,30.29
2022-08-22T11:45:21.446Z,30.53
2022-08-22T11:46:20.977Z,30.54
2022-08-22T11:47:26.698Z,30.64
2022-08-22T11:48:21.093Z,30.71
2022-08-22T11:49:21.237Z,30.80
2022-08-22T11:50:22.173Z,30.78
2022-08-22T11:51:47.205Z,30.81
2022-08-22T11:52:36.223Z,29.44
2022-08-22T11:53:21.465Z,29.26
2022-08-22T11:54:21.564Z,29.50
2022-08-22T11:55:21.657Z,29.45
2022-08-22T11:56:22.230Z,29.23
2022-08-22T11:57:21.644Z,29.74
2022-08-22T11:58:21.763Z,29.78
2022-08-22T11:59:27.240Z,29.41
2022-08-22T12:00:30.523Z,29.84
2022-08-22T12:01:23.735Z,30.05
2022-08-22T12:39:19.892Z,31.92
2022-08-22T12:39:52.914Z,31.79
2022-08-22T12:40:52.905Z,31.75
2022-08-22T12:41:52.985Z,31.45
2022-08-22T12:42:53.028Z,31.50
2022-08-22T12:43:53.179Z,31.70
2022-08-22T12:44:53.167Z,31.84
2022-08-22T12:45:53.188Z,31.64
2022-08-22T12:46:53.258Z,31.46
2022-08-22T12:47:53.365Z,31.50
2022-08-22T12:48:53.434Z,31.65
2022-08-22T12:49:53.489Z,31.45
2022-08-22T12:50:53.534Z,31.33
2022-08-22T12:51:55.899Z,31.36
2022-08-22T12:52:54.297Z,31.27
2022-08-22T12:53:53.725Z,31.58
2022-08-22T12:54:53.763Z,31.93
2022-08-22T12:55:53.855Z,32.22
2022-08-22T12:56:53.895Z,32.22
2022-08-22T12:57:54.219Z,32.14
2022-08-22T12:58:54.027Z,32.00
2022-08-22T12:59:54.117Z,32.00
2022-08-22T13:00:54.253Z,32.29
2022-08-22T13:01:54.217Z,32.74
2022-08-22T13:02:54.280Z,32.42
2022-08-22T13:03:54.346Z,32.39
2022-08-22T13:04:54.411Z,32.37
2022-08-22T13:05:57.182Z,32.57
2022-08-22T13:06:54.568Z,32.22
2022-08-22T13:07:54.686Z,32.06
2022-08-22T13:08:54.669Z,32.07
2022-08-22T13:09:54.779Z,32.24
2022-08-22T13:10:54.798Z,32.30
2022-08-22T13:11:54.868Z,32.06
2022-08-22T13:12:54.931Z,32.25
2022-08-22T13:13:56.383Z,32.47
2022-08-22T13:14:55.898Z,32.93
2022-08-22T13:15:55.132Z,32.91
2022-08-22T13:16:55.193Z,32.69
2022-08-22T13:17:55.334Z,32.69
2022-08-22T13:18:55.326Z,32.76
2022-08-22T13:19:55.401Z,32.36
2022-08-22T13:20:55.856Z,31.85
2022-08-22T13:21:55.517Z,31.33
2022-08-22T13:22:55.650Z,31.55
2022-08-22T13:24:22.526Z,31.60
2022-08-22T13:24:55.717Z,31.73
2022-08-22T13:25:55.786Z,31.76
2022-08-22T13:26:55.877Z,32.00
2022-08-22T13:27:55.918Z,32.39
2022-08-22T13:29:09.256Z,32.54
2022-08-22T13:29:57.133Z,32.93
2022-08-22T13:30:56.106Z,32.96
2022-08-22T13:31:56.312Z,33.01
2022-08-22T13:32:56.239Z,33.51
2022-08-22T13:33:56.328Z,33.46
2022-08-22T13:34:56.405Z,33.45
2022-08-22T13:35:56.486Z,33.49
2022-08-22T13:36:56.634Z,33.17
2022-08-22T13:37:56.605Z,33.04
2022-08-22T13:38:56.685Z,33.17
2022-08-22T13:39:56.809Z,32.67
2022-08-22T13:40:56.823Z,32.93
2022-08-22T13:41:56.910Z,32.95
2022-08-22T13:42:56.895Z,32.73
2022-08-22T13:43:57.002Z,32.67
2022-08-22T13:44:57.075Z,32.84
2022-08-22T13:45:57.140Z,32.99
2022-08-22T13:47:13.766Z,33.19
2022-08-22T13:47:57.266Z,32.95
2022-08-22T13:49:00.744Z,32.80
2022-08-22T13:49:57.356Z,32.67
2022-08-22T13:50:57.468Z,32.76
2022-08-22T13:51:57.545Z,32.59
2022-08-22T13:52:57.612Z,32.55
2022-08-22T13:54:01.071Z,32.27
2022-08-22T13:54:57.728Z,32.51
2022-08-22T13:55:57.803Z,32.30
2022-08-22T13:56:57.946Z,32.15
2022-08-22T13:57:57.929Z,32.14
2022-08-22T13:58:57.978Z,32.03
2022-08-22T14:00:05.567Z,32.22
2022-08-22T14:00:58.144Z,32.29
2022-08-22T14:01:58.293Z,32.42
2022-08-22T14:02:58.351Z,32.84
2022-08-22T14:03:58.345Z,33.15
2022-08-22T14:04:58.403Z,33.37
2022-08-22T14:05:59.050Z,33.60
2022-08-22T14:06:58.586Z,33.26
2022-08-22T14:07:58.589Z,32.67
2022-08-22T14:08:58.663Z,32.95
2022-08-22T14:09:58.726Z,32.66
2022-08-22T14:11:02.016Z,32.32
2022-08-22T14:11:58.933Z,32.35
2022-08-22T14:12:58.924Z,32.42
2022-08-22T14:13:58.983Z,32.48
2022-08-22T14:14:59.067Z,32.74
2022-08-22T14:15:59.118Z,32.54
2022-08-22T14:16:59.221Z,32.76
2022-08-22T14:17:59.243Z,32.70
2022-08-22T14:18:59.325Z,32.84
2022-08-22T14:20:01.405Z,32.64
2022-08-22T14:20:59.447Z,32.70
2022-08-22T14:21:59.697Z,32.61
2022-08-22T14:23:03.872Z,32.71
2022-08-22T14:23:59.742Z,32.52
2022-08-22T14:24:59.713Z,33.31
2022-08-22T14:25:59.839Z,32.70
2022-08-22T14:26:59.800Z,32.33
2022-08-22T14:28:01.045Z,31.87
2022-08-22T14:29:00.054Z,31.93
2022-08-22T14:30:00.042Z,32.02
2022-08-22T14:31:00.939Z,31.95
2022-08-22T14:32:00.132Z,32.25
2022-08-22T14:33:00.213Z,32.44
2022-08-22T14:34:00.264Z,32.36
2022-08-22T14:35:00.364Z,32.40
2022-08-22T14:36:00.444Z,32.33
2022-08-22T14:37:00.558Z,32.69
2022-08-22T14:38:00.837Z,32.62
2022-08-22T14:39:00.649Z,32.57
2022-08-22T14:40:00.753Z,32.55
2022-08-22T14:41:00.904Z,32.79
2022-08-22T14:42:03.945Z,33.04
2022-08-22T14:43:00.916Z,33.08
2022-08-22T14:44:00.986Z,33.79
2022-08-22T14:45:01.056Z,33.55
2022-08-22T14:46:02.026Z,33.45
2022-08-22T14:47:01.184Z,33.52
2022-08-22T14:48:14.520Z,32.99
2022-08-22T14:49:01.263Z,33.26
2022-08-22T14:50:01.326Z,33.52
2022-08-22T14:51:01.422Z,33.07
2022-08-22T14:52:01.464Z,33.46
2022-08-22T14:53:01.557Z,34.01
2022-08-22T14:54:01.586Z,34.36
2022-08-22T14:55:06.168Z,34.56
2022-08-22T14:56:01.723Z,35.02
2022-08-22T14:57:01.795Z,35.15
2022-08-22T14:58:03.415Z,34.36
2022-08-22T14:59:01.918Z,34.29
2022-08-22T15:00:01.979Z,34.01
2022-08-22T15:01:02.048Z,33.78
2022-08-22T15:02:02.266Z,33.55
2022-08-22T15:03:02.188Z,33.42
2022-08-22T15:04:02.302Z,33.37
2022-08-22T15:05:02.347Z,33.37
2022-08-22T15:06:02.412Z,33.41
2022-08-22T15:07:02.477Z,33.30
2022-08-22T15:08:02.541Z,33.33
2022-08-22T15:09:07.855Z,33.71
2022-08-22T15:10:03.106Z,33.49
2022-08-22T15:11:02.725Z,33.33
2022-08-22T15:12:03.890Z,33.37
2022-08-22T15:13:02.856Z,33.55
2022-08-22T15:14:02.952Z,33.90
2022-08-22T15:15:03.005Z,34.26
2022-08-22T15:16:08.037Z,33.39
2022-08-22T15:17:03.133Z,32.95
2022-08-22T15:18:03.288Z,33.04
2022-08-22T15:19:03.242Z,33.22
2022-08-22T15:20:03.340Z,32.95
2022-08-22T15:21:03.380Z,32.70
2022-08-22T15:22:03.442Z,32.67
2022-08-22T15:23:03.580Z,32.29
2022-08-22T15:24:03.590Z,32.07
2022-08-22T15:25:03.687Z,32.07
2022-08-22T15:26:03.796Z,32.40
2022-08-22T15:27:06.854Z,33.06
2022-08-22T15:28:05.604Z,32.99
2022-08-22T15:29:04.301Z,32.84
2022-08-22T15:30:04.048Z,33.49
2022-08-22T15:31:04.093Z,33.86
2022-08-22T15:32:04.208Z,33.65
2022-08-22T15:33:04.219Z,33.63
2022-08-22T15:34:04.262Z,33.89
2022-08-22T15:35:04.342Z,33.76
2022-08-22T15:36:04.407Z,33.27
2022-08-22T15:37:08.336Z,33.43
2022-08-22T15:38:04.528Z,33.08
2022-08-22T15:39:04.610Z,33.01
2022-08-22T15:40:08.204Z,33.60
2022-08-22T15:41:04.751Z,33.98
2022-08-22T15:42:04.812Z,34.48
2022-08-22T15:43:04.828Z,34.77
2022-08-22T15:44:04.903Z,34.58
2022-08-22T15:45:04.958Z,34.64
2022-08-22T15:46:05.029Z,34.91
2022-08-22T15:47:05.123Z,34.56
2022-08-22T15:48:05.162Z,34.72
2022-08-22T15:49:05.224Z,34.04
2022-08-22T15:50:05.624Z,33.23
2022-08-22T15:51:05.362Z,32.89
2022-08-22T15:52:05.474Z,32.92
2022-08-22T15:53:06.817Z,32.92
2022-08-22T15:54:16.342Z,32.79
2022-08-22T15:55:05.610Z,33.06
2022-08-22T15:56:05.711Z,32.93
2022-08-22T15:57:06.386Z,33.11
2022-08-22T15:58:05.906Z,33.42
2022-08-22T15:59:05.874Z,33.63
2022-08-22T16:00:12.361Z,33.70
2022-08-22T16:01:06.011Z,33.74
2022-08-22T16:02:06.105Z,33.98
2022-08-22T16:03:06.184Z,33.58
2022-08-22T16:04:06.201Z,33.42
2022-08-22T16:05:06.270Z,33.90
2022-08-22T16:06:07.421Z,34.14
2022-08-22T16:07:09.487Z,33.76
2022-08-22T16:08:06.486Z,33.08
2022-08-22T16:09:06.541Z,32.39
2022-08-22T16:10:06.596Z,31.55
2022-08-22T16:11:06.663Z,30.89
2022-08-22T16:12:06.739Z,30.03
2022-08-22T16:13:06.808Z,29.33
2022-08-22T16:14:06.855Z,28.88
2022-08-22T16:15:06.914Z,28.41
2022-08-22T16:16:06.985Z,28.23
2022-08-22T16:17:07.051Z,28.11
2022-08-22T16:18:07.148Z,27.99
2022-08-22T16:19:07.172Z,28.03
2022-08-22T16:20:07.232Z,27.99
2022-08-22T16:21:07.295Z,27.84
2022-08-22T16:22:07.362Z,27.73
2022-08-22T16:23:07.439Z,27.71
2022-08-22T16:24:07.504Z,27.51
2022-08-22T16:25:10.170Z,27.51
2022-08-22T16:26:07.615Z,27.42
2022-08-22T16:27:07.651Z,27.35
2022-08-22T16:28:07.738Z,27.31
2022-08-22T16:29:07.774Z,27.02
2022-08-22T16:30:07.856Z,27.05
2022-08-22T16:31:07.892Z,27.05
2022-08-22T16:32:07.951Z,27.04
2022-08-22T16:33:18.040Z,26.94
2022-08-22T16:34:08.081Z,26.65
2022-08-22T16:35:08.131Z,26.58
2022-08-22T16:36:08.181Z,26.40
2022-08-22T16:37:08.340Z,26.40
2022-08-22T16:38:08.340Z,26.31
2022-08-22T16:39:08.366Z,26.32
2022-08-22T16:40:08.443Z,26.29
2022-08-22T16:41:08.467Z,26.35
2022-08-22T16:42:08.980Z,26.43
2022-08-22T16:43:08.583Z,26.50
2022-08-22T16:44:08.642Z,26.29
2022-08-22T16:45:08.752Z,26.29
2022-08-22T16:46:08.806Z,26.27
2022-08-22T16:47:08.811Z,26.22
2022-08-22T16:48:14.342Z,26.20
2022-08-22T16:49:08.920Z,26.09
2022-08-22T16:50:08.977Z,26.12
2022-08-22T18:21:29.599Z,22.80
2022-08-22T18:22:29.610Z,22.80
2022-08-22T18:23:36.268Z,22.75
2022-08-22T18:24:33.111Z,22.80
2022-08-22T18:25:29.756Z,22.65
2022-08-22T18:26:29.835Z,22.69
2022-08-22T18:27:35.218Z,22.67
2022-08-22T18:28:29.914Z,22.64
2022-08-22T18:29:29.965Z,22.64
2022-08-22T18:30:30.018Z,22.43
2022-08-22T18:31:30.103Z,22.44
2022-08-22T18:32:30.119Z,22.46
2022-08-22T18:33:32.193Z,22.38
2022-08-22T18:34:30.225Z,22.32
2022-08-22T18:35:30.303Z,22.32
2022-08-22T18:36:30.331Z,22.29
2022-08-22T18:37:30.407Z,22.34
2022-08-22T18:38:33.076Z,22.25
